createdAt,value
2022-08-28T00:01:41.426Z,41.31
2022-08-28T00:04:11.156Z,41.49
2022-08-28T00:06:40.766Z,41.47
2022-08-28T00:09:11.515Z,41.33
2022-08-28T00:11:41.291Z,41.53
2022-08-28T00:14:11.310Z,41.70
2022-08-28T00:16:41.081Z,41.51
2022-08-28T00:19:11.596Z,41.38
2022-08-28T00:21:41.112Z,41.05
2022-08-28T00:24:11.751Z,41.01
2022-08-28T00:27:00.838Z,40.80
2022-08-28T00:29:36.942Z,41.09
2022-08-28T00:32:07.168Z,40.95
2022-08-28T00:34:36.673Z,40.97
2022-08-28T00:37:08.054Z,40.67
2022-08-28T00:39:37.605Z,41.12
2022-08-28T00:42:07.673Z,40.97
2022-08-28T00:44:37.489Z,40.97
2022-08-28T00:47:07.718Z,41.48
2022-08-28T00:49:39.222Z,41.42
2022-08-28T00:52:12.708Z,41.08
2022-08-28T00:54:50.530Z,41.13
2022-08-28T00:57:17.872Z,41.04
2022-08-28T00:59:47.368Z,41.46
2022-08-28T01:02:18.725Z,41.15
2022-08-28T01:04:48.369Z,41.19
2022-08-28T01:07:18.167Z,42.06
2022-08-28T01:09:49.234Z,41.52
2022-08-28T01:12:21.544Z,41.25
2022-08-28T01:14:51.557Z,41.23
2022-08-28T01:17:21.313Z,41.10
2022-08-28T01:19:55.456Z,41.53
2022-08-28T01:22:40.043Z,41.16
2022-08-28T01:25:12.158Z,42.07
2022-08-28T01:27:42.745Z,41.67
2022-08-28T01:30:17.966Z,41.42
2022-08-28T01:32:50.407Z,41.38
2022-08-28T01:35:22.308Z,41.29
2022-08-28T01:37:51.842Z,41.60
2022-08-28T01:40:23.867Z,41.25
2022-08-28T01:42:53.512Z,42.10
2022-08-28T01:45:26.894Z,41.82
2022-08-28T01:47:58.647Z,41.52
2022-08-28T01:50:29.027Z,41.50
2022-08-28T01:52:59.889Z,41.41
2022-08-28T01:55:30.077Z,41.82
2022-08-28T01:58:00.149Z,41.41
2022-08-28T02:00:31.148Z,41.86
2022-08-28T02:03:01.539Z,42.05
2022-08-28T02:05:33.646Z,41.73
2022-08-28T02:08:09.536Z,41.65
2022-08-28T02:10:40.040Z,41.61
2022-08-28T02:13:09.758Z,41.67
2022-08-28T02:15:39.652Z,41.50
2022-08-28T02:18:11.099Z,41.61
2022-08-28T02:20:42.356Z,42.06
2022-08-28T02:23:12.293Z,41.75
2022-08-28T02:25:43.899Z,41.65
2022-08-28T02:28:13.854Z,41.57
2022-08-28T02:30:49.108Z,41.67
2022-08-28T02:33:18.946Z,41.70
2022-08-28T02:35:48.570Z,41.65
2022-08-28T02:41:39.011Z,41.93
2022-08-28T02:44:08.597Z,41.73
2022-08-28T02:46:41.076Z,41.70
2022-08-28T02:49:14.007Z,41.79
2022-08-28T02:51:46.738Z,41.68
2022-08-28T02:54:16.632Z,41.63
2022-08-28T02:56:47.952Z,42.22
2022-08-28T02:59:30.367Z,41.89
2022-08-28T03:02:04.622Z,41.77
2022-08-28T03:05:04.807Z,41.68
2022-08-28T03:07:26.664Z,41.76
2022-08-28T03:10:01.614Z,41.84
2022-08-28T03:12:32.090Z,41.91
2022-08-28T03:15:09.985Z,41.96
2022-08-28T03:17:39.735Z,42.03
2022-08-28T03:20:14.600Z,42.09
2022-08-28T03:23:01.385Z,42.15
2022-08-28T03:25:31.160Z,42.21
2022-08-28T03:28:10.110Z,42.30
2022-08-28T03:30:58.645Z,42.36
2022-08-28T03:33:18.865Z,42.40
2022-08-28T03:35:51.469Z,42.46
2022-08-28T03:38:33.412Z,42.51
2022-08-28T03:41:03.103Z,42.56
2022-08-28T03:43:32.658Z,42.62
2022-08-28T03:46:03.870Z,42.66
2022-08-28T03:48:38.096Z,42.69
2022-08-28T03:51:10.255Z,42.74
2022-08-28T03:53:41.306Z,42.76
2022-08-28T03:56:14.899Z,42.79
2022-08-28T03:58:44.931Z,42.84
2022-08-28T04:01:19.305Z,42.86
2022-08-28T04:03:49.061Z,42.90
2022-08-28T04:06:18.998Z,42.94
2022-08-28T04:08:49.104Z,42.99
2022-08-28T04:11:19.313Z,43.02
2022-08-28T04:16:32.744Z,43.06
2022-08-28T04:19:04.943Z,43.08
2022-08-28T04:21:38.400Z,42.93
2022-08-28T04:24:09.863Z,43.41
2022-08-28T04:26:39.261Z,43.46
2022-08-28T04:29:10.518Z,43.38
2022-08-28T04:31:40.328Z,43.35
2022-08-28T04:34:19.803Z,43.37
2022-08-28T04:36:51.059Z,43.41
2022-08-28T04:39:20.962Z,43.43
2022-08-28T04:41:56.648Z,43.46
2022-08-28T04:44:27.247Z,43.58
2022-08-28T04:46:58.929Z,43.24
2022-08-28T04:49:44.377Z,43.73
2022-08-28T04:52:14.170Z,43.63
2022-08-28T04:54:43.975Z,43.57
2022-08-28T04:57:21.994Z,43.51
2022-08-28T04:59:51.545Z,43.50
2022-08-28T05:02:26.256Z,43.52
2022-08-28T05:04:58.968Z,43.59
2022-08-28T05:07:30.251Z,43.57
2022-08-28T05:10:00.648Z,43.72
2022-08-28T05:12:32.304Z,43.30
2022-08-28T05:15:04.770Z,43.86
2022-08-28T05:17:37.677Z,43.84
2022-08-28T05:20:07.901Z,43.75
2022-08-28T05:22:37.720Z,43.72
2022-08-28T05:25:13.251Z,43.67
2022-08-28T05:27:47.302Z,43.66
2022-08-28T05:30:18.721Z,43.69
2022-08-28T05:32:50.041Z,43.29
2022-08-28T05:35:21.009Z,44.01
2022-08-28T05:37:51.129Z,43.91
2022-08-28T05:40:22.930Z,43.80
2022-08-28T05:42:57.089Z,43.77
2022-08-28T05:45:26.566Z,43.74
2022-08-28T05:47:57.058Z,43.71
2022-08-28T05:50:36.186Z,43.69
2022-08-28T05:53:07.860Z,43.76
2022-08-28T05:55:37.757Z,44.28
2022-08-28T05:58:08.967Z,44.23
2022-08-28T06:00:40.898Z,44.02
2022-08-28T06:03:10.697Z,43.93
2022-08-28T06:05:40.737Z,43.87
2022-08-28T06:08:10.751Z,43.84
2022-08-28T06:10:51.573Z,43.84
2022-08-28T06:13:21.166Z,43.81
2022-08-28T06:16:02.746Z,43.85
2022-08-28T06:18:39.189Z,43.49
2022-08-28T06:21:10.509Z,44.34
2022-08-28T06:23:56.635Z,44.17
2022-08-28T06:26:28.188Z,44.06
2022-08-28T06:29:15.385Z,43.99
2022-08-28T06:31:44.346Z,43.95
2022-08-28T06:34:14.609Z,43.92
2022-08-28T06:36:44.978Z,43.91
2022-08-28T06:39:18.723Z,43.91
2022-08-28T06:41:53.572Z,43.69
2022-08-28T06:44:33.096Z,44.14
2022-08-28T06:47:04.153Z,44.33
2022-08-28T06:49:37.284Z,44.19
2022-08-28T06:52:16.989Z,44.09
2022-08-28T06:54:55.593Z,44.08
2022-08-28T06:57:19.895Z,44.03
2022-08-28T06:59:49.883Z,44.00
2022-08-28T07:02:19.556Z,44.00
2022-08-28T07:04:54.376Z,43.99
2022-08-28T07:07:31.545Z,44.32
2022-08-28T07:10:05.577Z,43.62
2022-08-28T07:12:38.295Z,44.53
2022-08-28T07:15:08.853Z,44.39
2022-08-28T07:17:38.904Z,44.24
2022-08-28T07:20:09.409Z,44.20
2022-08-28T07:22:40.794Z,44.16
2022-08-28T07:25:11.755Z,44.15
2022-08-28T07:27:41.311Z,44.12
2022-08-28T07:30:13.255Z,44.11
2022-08-28T07:32:43.815Z,44.10
2022-08-28T07:35:13.890Z,44.10
2022-08-28T07:37:43.377Z,43.56
2022-08-28T07:40:13.728Z,44.45
2022-08-28T07:43:01.070Z,44.53
2022-08-28T07:45:31.604Z,44.38
2022-08-28T07:48:01.556Z,44.32
2022-08-28T07:50:32.461Z,44.30
2022-08-28T07:53:01.988Z,44.27
2022-08-28T07:55:37.833Z,44.24
2022-08-28T07:58:15.651Z,44.22
2022-08-28T08:00:55.916Z,44.22
2022-08-28T08:03:30.489Z,44.22
2022-08-28T08:06:04.555Z,43.66
2022-08-28T08:08:34.944Z,44.67
2022-08-28T08:11:16.634Z,44.65
2022-08-28T08:14:00.376Z,44.52
2022-08-28T08:16:25.599Z,44.43
2022-08-28T08:18:55.884Z,44.42
2022-08-28T08:21:30.417Z,44.40
2022-08-28T08:24:02.850Z,44.37
2022-08-28T08:26:40.861Z,44.35
2022-08-28T08:29:14.227Z,44.33
2022-08-28T08:31:44.145Z,44.32
2022-08-28T08:34:17.054Z,44.35
2022-08-28T08:36:47.141Z,44.13
2022-08-28T08:39:17.426Z,44.85
2022-08-28T08:41:57.952Z,44.67
2022-08-28T08:44:49.082Z,44.58
2022-08-28T08:47:46.083Z,44.53
2022-08-28T08:50:24.315Z,44.50
2022-08-28T08:53:17.937Z,44.47
2022-08-28T08:55:51.105Z,44.49
2022-08-28T08:58:38.997Z,44.46
2022-08-28T09:02:00.703Z,44.45
2022-08-28T09:04:26.893Z,44.47
2022-08-28T09:07:07.223Z,44.46
2022-08-28T09:09:40.614Z,43.91
2022-08-28T09:12:17.923Z,45.15
2022-08-28T09:14:53.331Z,44.92
2022-08-28T09:17:25.222Z,44.76
2022-08-28T09:19:55.380Z,44.70
2022-08-28T09:22:31.865Z,44.66
2022-08-28T09:25:04.845Z,44.66
2022-08-28T09:27:35.985Z,44.60
2022-08-28T09:30:14.192Z,44.63
2022-08-28T09:32:51.484Z,44.59
2022-08-28T09:35:45.044Z,44.57
2022-08-28T09:38:29.407Z,44.59
2022-08-28T09:44:24.275Z,44.65
2022-08-28T09:46:53.849Z,44.33
2022-08-28T09:49:39.623Z,45.08
2022-08-28T09:52:12.280Z,44.88
2022-08-28T09:54:42.206Z,44.79
2022-08-28T09:57:11.996Z,44.76
2022-08-28T09:59:44.241Z,44.72
2022-08-28T10:02:26.096Z,44.73
2022-08-28T10:05:20.746Z,44.71
2022-08-28T10:07:56.598Z,44.70
2022-08-28T10:10:32.013Z,44.70
2022-08-28T10:13:26.074Z,44.68
2022-08-28T10:16:20.940Z,44.67
2022-08-28T10:18:54.336Z,44.66
2022-08-28T10:21:38.778Z,44.21
2022-08-28T10:24:27.078Z,45.11
2022-08-28T10:27:02.966Z,45.05
2022-08-28T10:29:46.015Z,44.88
2022-08-28T10:32:37.605Z,44.80
2022-08-28T10:35:18.589Z,44.83
2022-08-28T10:38:07.982Z,44.82
2022-08-28T10:40:51.478Z,44.77
2022-08-28T10:43:58.120Z,44.73
2022-08-28T10:46:39.876Z,44.72
2022-08-28T10:49:12.630Z,44.72
2022-08-28T10:51:57.226Z,44.75
2022-08-28T10:54:47.574Z,44.72
2022-08-28T10:57:39.910Z,44.70
2022-08-28T11:00:16.962Z,44.67
2022-08-28T11:02:57.886Z,44.68
2022-08-28T11:05:34.042Z,44.03
2022-08-28T11:08:06.080Z,45.25
2022-08-28T11:10:42.031Z,45.13
2022-08-28T11:13:16.130Z,44.81
2022-08-28T11:15:51.076Z,44.71
2022-08-28T11:18:41.586Z,44.68
2022-08-28T11:21:26.988Z,44.66
2022-08-28T11:24:16.374Z,44.70
2022-08-28T11:27:08.492Z,44.70
2022-08-28T11:30:27.967Z,44.69
2022-08-28T11:35:45.791Z,44.68
2022-08-28T11:38:19.989Z,44.66
2022-08-28T11:40:54.077Z,44.64
2022-08-28T11:43:27.262Z,44.65
2022-08-28T11:46:00.722Z,44.66
2022-08-28T11:48:40.901Z,44.67
2022-08-28T11:51:15.978Z,44.68
2022-08-28T11:54:15.332Z,44.69
2022-08-28T11:57:07.452Z,44.68
2022-08-28T11:59:55.153Z,44.69
2022-08-28T12:02:45.936Z,44.58
2022-08-28T12:05:18.499Z,44.83
2022-08-28T12:07:49.403Z,45.23
2022-08-28T12:10:27.991Z,44.90
2022-08-28T12:13:02.709Z,44.76
2022-08-28T12:15:35.286Z,44.72
2022-08-28T12:18:09.833Z,44.75
2022-08-28T12:20:51.076Z,44.72
2022-08-28T12:23:38.660Z,44.76
2022-08-28T12:26:26.318Z,44.75
2022-08-28T12:28:58.275Z,44.74
2022-08-28T12:32:00.888Z,44.75
2022-08-28T12:34:46.281Z,44.77
2022-08-28T12:37:39.702Z,44.77
2022-08-28T12:40:10.886Z,44.76
2022-08-28T12:42:43.553Z,44.77
2022-08-28T12:45:15.020Z,44.79
2022-08-28T12:47:45.175Z,44.83
2022-08-28T12:50:26.393Z,44.86
2022-08-28T12:52:58.618Z,44.41
2022-08-28T12:55:29.248Z,43.78
2022-08-28T12:57:59.362Z,43.73
2022-08-28T13:00:33.528Z,43.72
2022-08-28T13:03:03.151Z,43.80
2022-08-28T13:05:43.338Z,42.89
2022-08-28T13:08:13.507Z,41.96
2022-08-28T13:10:45.056Z,41.57
2022-08-28T13:13:32.336Z,41.99
2022-08-28T13:16:12.436Z,43.46
2022-08-28T13:19:08.644Z,43.53
2022-08-28T13:21:40.299Z,42.38
2022-08-28T13:24:27.912Z,42.34
2022-08-28T13:27:15.730Z,43.79
2022-08-28T13:30:03.758Z,43.70
2022-08-28T13:32:37.834Z,43.74
2022-08-28T13:35:25.286Z,43.03
2022-08-28T13:37:59.310Z,44.77
2022-08-28T13:43:07.935Z,43.96
2022-08-28T13:45:43.156Z,44.08
2022-08-28T13:48:14.201Z,44.16
2022-08-28T13:50:46.708Z,44.64
2022-08-28T13:53:20.016Z,44.91
2022-08-28T13:55:49.509Z,44.65
2022-08-28T13:58:20.179Z,44.17
2022-08-28T14:00:50.994Z,43.91
2022-08-28T14:03:39.979Z,43.86
2022-08-28T14:06:14.325Z,45.08
2022-08-28T14:08:44.835Z,44.77
2022-08-28T14:11:14.788Z,44.74
2022-08-28T14:13:47.369Z,44.76
2022-08-28T14:16:17.715Z,44.58
2022-08-28T14:18:47.501Z,44.95
2022-08-28T14:21:17.536Z,45.29
2022-08-28T14:23:47.592Z,44.58
2022-08-28T14:26:17.184Z,44.31
2022-08-28T14:28:47.142Z,44.94
2022-08-28T14:31:16.927Z,44.56
2022-08-28T14:33:47.055Z,45.73
2022-08-28T14:36:18.638Z,45.44
2022-08-28T14:39:05.354Z,45.00
2022-08-28T14:41:43.658Z,44.56
2022-08-28T14:44:13.223Z,44.54
2022-08-28T14:46:44.878Z,44.10
2022-08-28T14:52:31.599Z,45.14
2022-08-28T14:55:06.790Z,45.02
2022-08-28T14:57:53.525Z,45.25
2022-08-28T15:00:33.945Z,45.23
2022-08-28T15:03:19.250Z,45.39
2022-08-28T15:05:52.978Z,44.79
2022-08-28T15:08:22.594Z,44.61
2022-08-28T15:11:09.099Z,45.36
2022-08-28T15:13:42.790Z,44.60
2022-08-28T15:16:16.281Z,45.42
2022-08-28T15:19:04.507Z,45.29
2022-08-28T15:21:56.049Z,44.73
2022-08-28T15:24:31.049Z,44.60
2022-08-28T15:27:02.293Z,45.01
2022-08-28T15:29:33.060Z,44.55
2022-08-28T15:32:04.359Z,44.68
2022-08-28T15:34:34.143Z,45.41
2022-08-28T15:37:03.641Z,44.82
2022-08-28T15:39:48.734Z,44.63
2022-08-28T15:42:18.640Z,44.57
2022-08-28T15:44:51.045Z,45.10
2022-08-28T15:47:43.202Z,44.47
2022-08-28T15:50:17.387Z,45.59
2022-08-28T15:52:49.126Z,45.26
2022-08-28T15:55:18.954Z,44.76
2022-08-28T15:57:50.727Z,44.54
2022-08-28T16:00:21.668Z,44.52
2022-08-28T16:02:51.188Z,44.96
2022-08-28T16:05:21.088Z,45.46
2022-08-28T16:08:00.332Z,45.61
2022-08-28T16:10:30.922Z,45.06
2022-08-28T16:13:01.812Z,44.64
2022-08-28T16:15:31.896Z,44.75
2022-08-28T16:18:02.157Z,44.99
2022-08-28T16:20:31.906Z,45.83
2022-08-28T16:23:09.711Z,45.70
2022-08-28T16:25:41.992Z,45.23
2022-08-28T16:28:11.620Z,44.85
2022-08-28T16:30:43.963Z,44.92
2022-08-28T16:33:13.199Z,45.07
2022-08-28T16:35:47.934Z,45.64
2022-08-28T16:38:15.287Z,45.48
2022-08-28T16:40:48.648Z,45.40
2022-08-28T16:43:18.508Z,45.02
2022-08-28T16:45:48.217Z,44.87
2022-08-28T16:48:17.762Z,45.50
2022-08-28T16:50:47.426Z,45.04
2022-08-28T16:53:19.979Z,44.76
2022-08-28T16:55:48.308Z,44.82
2022-08-28T16:58:18.413Z,45.24
2022-08-28T17:00:52.878Z,44.52
2022-08-28T17:03:24.314Z,45.55
2022-08-28T17:05:50.810Z,45.43
2022-08-28T17:08:20.590Z,44.91
2022-08-28T17:10:50.204Z,44.54
2022-08-28T17:13:19.957Z,44.49
2022-08-28T17:15:49.508Z,45.12
2022-08-28T17:18:20.674Z,45.38
2022-08-28T17:21:13.822Z,45.77
2022-08-28T17:23:43.526Z,45.20
2022-08-28T17:26:13.311Z,44.72
2022-08-28T17:28:44.297Z,44.44
2022-08-28T17:31:14.564Z,45.08
2022-08-28T17:33:44.958Z,46.06
2022-08-28T17:36:25.623Z,45.68
2022-08-28T17:38:47.189Z,45.14
2022-08-28T17:41:16.781Z,44.73
2022-08-28T17:43:46.472Z,44.84
2022-08-28T17:46:16.054Z,44.83
2022-08-28T17:48:47.904Z,45.74
2022-08-28T17:51:17.671Z,45.61
2022-08-28T17:53:49.034Z,45.24
2022-08-28T17:56:18.733Z,44.69
2022-08-28T17:58:50.149Z,44.71
2022-08-28T18:01:23.685Z,44.25
2022-08-28T18:03:55.395Z,45.25
2022-08-28T18:06:25.878Z,45.08
2022-08-28T18:08:55.409Z,45.08
2022-08-28T18:11:25.180Z,45.13
2022-08-28T18:13:54.894Z,44.90
2022-08-28T18:16:30.333Z,43.99
2022-08-28T18:18:56.088Z,44.73
2022-08-28T18:21:25.648Z,44.70
2022-08-28T18:26:51.432Z,44.38
2022-08-28T18:29:21.066Z,44.52
2022-08-28T18:31:50.563Z,44.61
2022-08-28T18:34:20.076Z,44.28
2022-08-28T18:36:49.844Z,43.81
2022-08-28T18:39:29.237Z,44.52
2022-08-28T18:41:51.045Z,44.52
2022-08-28T18:44:24.162Z,44.11
2022-08-28T18:46:52.254Z,44.11
2022-08-28T18:49:22.040Z,44.29
2022-08-28T18:51:51.585Z,44.40
2022-08-28T18:54:21.226Z,44.40
2022-08-28T18:56:53.023Z,43.53
2022-08-28T18:59:23.355Z,44.34
2022-08-28T19:01:52.969Z,44.50
2022-08-28T19:04:22.794Z,44.11
2022-08-28T19:06:52.430Z,44.16
2022-08-28T19:09:22.245Z,44.31
2022-08-28T19:11:51.862Z,44.34
2022-08-28T19:14:21.410Z,44.21
2022-08-28T19:16:51.301Z,43.66
2022-08-28T19:19:20.808Z,44.63
2022-08-28T19:21:50.943Z,44.33
2022-08-28T19:24:22.001Z,43.92
2022-08-28T19:26:51.502Z,43.93
2022-08-28T19:29:21.048Z,44.15
2022-08-28T19:31:57.842Z,44.41
2022-08-28T19:34:27.741Z,43.73
2022-08-28T19:36:57.577Z,44.65
2022-08-28T19:39:28.075Z,44.45
2022-08-28T19:41:57.669Z,44.12
2022-08-28T19:44:27.338Z,43.92
2022-08-28T19:46:57.223Z,44.06
2022-08-28T19:49:27.257Z,44.18
2022-08-28T19:51:57.080Z,44.17
2022-08-28T19:54:26.671Z,44.10
2022-08-28T19:56:56.316Z,43.93
2022-08-28T19:59:27.248Z,43.71
2022-08-28T20:01:57.078Z,43.80
2022-08-28T20:04:26.711Z,43.31
2022-08-28T20:07:09.317Z,44.12
2022-08-28T20:09:35.820Z,44.77
2022-08-28T20:12:05.735Z,44.34
2022-08-28T20:14:35.799Z,43.90
2022-08-28T20:17:06.028Z,43.76
2022-08-28T20:19:35.542Z,43.70
2022-08-28T20:22:07.384Z,43.78
2022-08-28T20:24:37.633Z,43.91
2022-08-28T20:27:07.516Z,44.06
2022-08-28T20:29:37.288Z,43.93
2022-08-28T20:32:07.284Z,44.13
2022-08-28T20:34:39.452Z,44.08
2022-08-28T20:37:08.405Z,43.62
2022-08-28T20:39:39.487Z,43.50
2022-08-28T20:42:10.035Z,43.59
2022-08-28T20:44:39.816Z,43.70
2022-08-28T20:47:09.456Z,44.08
2022-08-28T20:49:41.317Z,44.16
2022-08-28T20:52:14.321Z,44.17
2022-08-28T20:54:44.513Z,44.71
2022-08-28T20:57:16.697Z,44.21
2022-08-28T20:59:46.737Z,44.11
2022-08-28T21:02:18.830Z,44.07
2022-08-28T21:04:48.468Z,44.17
2022-08-28T21:07:18.924Z,44.89
2022-08-28T21:10:05.939Z,44.91
2022-08-28T21:12:20.912Z,44.54
2022-08-28T21:14:51.533Z,44.22
2022-08-28T21:17:29.515Z,44.02
2022-08-28T21:19:53.603Z,44.54
2022-08-28T21:22:26.183Z,45.18
2022-08-28T21:25:04.290Z,45.06
2022-08-28T21:27:33.682Z,44.95
2022-08-28T21:32:51.151Z,44.23
2022-08-28T21:35:25.730Z,44.80
2022-08-28T21:37:55.555Z,44.22
2022-08-28T21:40:25.758Z,44.38
2022-08-28T21:42:57.907Z,44.14
2022-08-28T21:45:28.160Z,44.01
2022-08-28T21:47:58.576Z,44.81
2022-08-28T21:50:29.650Z,44.91
2022-08-28T21:53:00.520Z,44.93
2022-08-28T21:55:30.619Z,44.86
2022-08-28T21:58:00.617Z,44.50
2022-08-28T22:00:31.158Z,44.04
2022-08-28T22:03:01.808Z,44.38
2022-08-28T22:05:31.608Z,44.29
2022-08-28T22:08:01.941Z,44.10
2022-08-28T22:10:34.090Z,43.63
2022-08-28T22:13:04.201Z,43.63
2022-08-28T22:15:34.213Z,43.58
2022-08-28T22:18:05.286Z,43.59
2022-08-28T22:20:35.679Z,43.74
2022-08-28T22:23:11.544Z,43.71
2022-08-28T22:25:45.410Z,43.48
2022-08-28T22:28:15.277Z,43.28
2022-08-28T22:30:44.983Z,43.56
2022-08-28T22:33:16.271Z,43.66
2022-08-28T22:35:46.067Z,44.15
2022-08-28T22:38:15.973Z,44.27
2022-08-28T22:40:45.831Z,44.02
2022-08-28T22:43:16.939Z,43.81
2022-08-28T22:45:48.130Z,43.95
2022-08-28T22:48:21.362Z,43.96
2022-08-28T22:50:50.919Z,43.55
2022-08-28T22:53:20.511Z,43.38
2022-08-28T22:55:50.243Z,43.28
2022-08-28T22:58:19.839Z,43.27
2022-08-28T23:00:49.775Z,43.38
2022-08-28T23:03:19.553Z,43.42
2022-08-28T23:05:49.429Z,43.20
2022-08-28T23:08:19.233Z,43.10
2022-08-28T23:10:59.092Z,42.70
2022-08-28T23:13:20.834Z,43.13
2022-08-28T23:15:50.627Z,43.11
2022-08-28T23:18:20.626Z,43.24
2022-08-28T23:20:51.428Z,43.05
2022-08-28T23:23:23.795Z,42.88
2022-08-28T23:25:53.659Z,42.67
2022-08-28T23:28:23.269Z,43.07
2022-08-28T23:30:54.282Z,42.98
2022-08-28T23:33:24.265Z,42.84
2022-08-28T23:35:54.289Z,43.51
2022-08-28T23:38:23.801Z,43.45
2022-08-28T23:40:53.495Z,43.31
2022-08-28T23:43:23.213Z,42.88
2022-08-28T23:45:52.983Z,43.18
2022-08-28T23:48:25.083Z,43.11
2022-08-28T23:50:55.305Z,42.92
2022-08-28T23:53:25.635Z,42.85
2022-08-28T23:55:56.018Z,42.73
2022-08-28T23:58:26.017Z,42.51
